createdAt,value
2018-11-23T00:02:29.535Z,-1.80
2018-11-23T00:05:17.486Z,-1.70
2018-11-23T00:08:05.329Z,-1.70
2018-11-23T00:10:53.146Z,-1.70
2018-11-23T00:13:40.928Z,-1.70
2018-11-23T00:16:28.755Z,-1.70
2018-11-23T00:19:16.542Z,-1.70
2018-11-23T00:22:04.355Z,-1.70
2018-11-23T00:24:52.136Z,-1.70
2018-11-23T00:27:40.211Z,-1.60
2018-11-23T00:33:36.308Z,-1.70
2018-11-23T00:39:31.146Z,-1.60
2018-11-23T00:42:18.942Z,-1.60
2018-11-23T00:45:07.363Z,-1.60
2018-11-23T00:47:55.990Z,-1.60
2018-11-23T00:50:43.820Z,-1.60
2018-11-23T00:53:31.603Z,-1.60
2018-11-23T00:56:19.402Z,-1.60
2018-11-23T00:59:07.206Z,-1.70
2018-11-23T01:02:14.121Z,-1.60
2018-11-23T01:05:01.930Z,-1.60
2018-11-23T01:07:49.956Z,-1.60
2018-11-23T01:10:37.761Z,-1.60
2018-11-23T01:13:25.612Z,-1.60
2018-11-23T01:16:13.401Z,-1.60
2018-11-23T01:19:01.208Z,-1.60
2018-11-23T01:21:49.039Z,-1.60
2018-11-23T01:24:36.812Z,-1.60
2018-11-23T01:27:17.526Z,-1.60
2018-11-23T01:29:57.884Z,-1.70
2018-11-23T01:32:38.861Z,-1.70
2018-11-23T01:35:19.172Z,-1.70
2018-11-23T01:37:59.890Z,-1.70
2018-11-23T01:40:41.061Z,-1.70
2018-11-23T01:43:21.696Z,-1.70
2018-11-23T01:46:02.527Z,-1.70
2018-11-23T01:48:43.379Z,-1.70
2018-11-23T01:51:24.199Z,-1.70
2018-11-23T01:54:05.477Z,-1.70
2018-11-23T01:56:46.603Z,-1.70
2018-11-23T01:59:27.725Z,-1.60
2018-11-23T02:02:08.587Z,-1.70
2018-11-23T02:04:49.371Z,-1.70
2018-11-23T02:07:30.465Z,-1.60
2018-11-23T02:10:11.820Z,-1.60
2018-11-23T02:12:52.873Z,-1.50
2018-11-23T02:15:33.951Z,-1.50
2018-11-23T02:18:14.589Z,-1.50
2018-11-23T02:20:55.388Z,-1.50
2018-11-23T02:23:36.553Z,-1.50
2018-11-23T02:26:17.750Z,-1.50
2018-11-23T02:28:58.132Z,-1.50
2018-11-23T02:31:39.021Z,-1.50
2018-11-23T02:34:19.897Z,-1.50
2018-11-23T02:37:00.680Z,-1.50
2018-11-23T02:39:41.606Z,-1.60
2018-11-23T02:42:23.601Z,-1.50
2018-11-23T02:45:04.522Z,-1.50
2018-11-23T02:47:45.805Z,-1.50
2018-11-23T02:50:26.398Z,-1.50
2018-11-23T02:53:07.037Z,-1.50
2018-11-23T02:55:47.683Z,-1.50
2018-11-23T02:58:28.059Z,-1.50
2018-11-23T03:01:09.003Z,-1.50
2018-11-23T03:03:50.106Z,-1.50
2018-11-23T03:06:30.727Z,-1.40
2018-11-23T03:09:11.141Z,-1.30
2018-11-23T03:11:51.752Z,-1.40
2018-11-23T03:14:32.227Z,-1.40
2018-11-23T03:17:12.740Z,-1.50
2018-11-23T03:19:53.954Z,-1.50
2018-11-23T03:22:22.421Z,-1.50
2018-11-23T03:25:10.513Z,-1.50
2018-11-23T03:27:58.326Z,-1.60
2018-11-23T03:30:46.186Z,-1.60
2018-11-23T03:33:33.990Z,-1.70
2018-11-23T03:36:22.534Z,-1.70
2018-11-23T03:39:10.339Z,-1.70
2018-11-23T03:41:58.169Z,-1.60
2018-11-23T03:44:45.988Z,-1.60
2018-11-23T03:47:33.967Z,-1.60
2018-11-23T03:50:21.789Z,-1.60
2018-11-23T03:53:09.627Z,-1.60
2018-11-23T03:55:57.437Z,-1.70
2018-11-23T03:58:45.303Z,-1.70
2018-11-23T04:01:33.124Z,-1.70
2018-11-23T04:04:20.927Z,-1.70
2018-11-23T04:07:08.762Z,-1.70
2018-11-23T04:09:56.569Z,-1.70
2018-11-23T04:12:44.890Z,-1.80
2018-11-23T04:15:32.738Z,-1.80
2018-11-23T04:18:20.541Z,-1.80
2018-11-23T04:21:08.362Z,-1.80
2018-11-23T04:23:56.182Z,-1.90
2018-11-23T04:26:44.017Z,-1.90
2018-11-23T04:29:31.841Z,-1.90
2018-11-23T04:32:19.689Z,-2.00
2018-11-23T04:35:08.202Z,-1.90
2018-11-23T04:37:56.037Z,-2.00
2018-11-23T04:40:43.841Z,-2.10
2018-11-23T04:43:31.695Z,-2.00
2018-11-23T04:46:19.500Z,-2.00
2018-11-23T04:49:07.362Z,-1.90
2018-11-23T04:51:55.230Z,-1.90
2018-11-23T04:54:43.033Z,-1.90
2018-11-23T04:57:30.830Z,-1.90
2018-11-23T05:00:18.750Z,-1.90
2018-11-23T05:03:06.532Z,-1.90
2018-11-23T05:05:54.472Z,-2.00
2018-11-23T05:08:42.270Z,-2.00
2018-11-23T05:11:30.135Z,-2.10
2018-11-23T05:14:20.112Z,-2.00
2018-11-23T05:20:23.436Z,-2.10
2018-11-23T05:23:15.046Z,-2.10
2018-11-23T05:26:22.211Z,-2.20
2018-11-23T05:35:12.137Z,-2.10
2018-11-23T05:37:59.965Z,-2.10
2018-11-23T05:40:47.801Z,-2.10
2018-11-23T05:43:35.613Z,-2.10
2018-11-23T05:46:23.440Z,-2.10
2018-11-23T05:49:11.243Z,-2.10
2018-11-23T05:51:59.063Z,-2.10
2018-11-23T05:54:46.873Z,-2.10
2018-11-23T05:57:34.694Z,-2.10
2018-11-23T06:00:41.612Z,-2.10
2018-11-23T06:03:29.456Z,-2.20
2018-11-23T06:06:17.315Z,-2.20
2018-11-23T06:09:06.172Z,-2.20
2018-11-23T06:11:53.998Z,-2.20
2018-11-23T06:14:41.822Z,-2.20
2018-11-23T06:17:29.612Z,-2.20
2018-11-23T06:20:21.775Z,-2.30
2018-11-23T06:23:09.581Z,-2.30
2018-11-23T06:26:16.850Z,-2.40
2018-11-23T06:29:04.678Z,-2.40
2018-11-23T06:31:52.626Z,-2.50
2018-11-23T06:34:40.427Z,-2.50
2018-11-23T06:37:28.271Z,-2.40
2018-11-23T06:40:16.160Z,-2.50
2018-11-23T06:43:03.995Z,-2.50
2018-11-23T06:45:51.814Z,-2.60
2018-11-23T06:48:39.633Z,-2.60
2018-11-23T06:51:27.430Z,-2.70
2018-11-23T06:54:15.273Z,-2.60
2018-11-23T06:57:03.080Z,-2.60
2018-11-23T06:59:50.920Z,-2.60
2018-11-23T07:05:26.284Z,-2.60
2018-11-23T07:08:14.103Z,-2.50
2018-11-23T07:11:03.085Z,-2.30
2018-11-23T07:13:50.900Z,-2.20
2018-11-23T07:16:38.698Z,-2.10
2018-11-23T07:19:26.639Z,-2.10
2018-11-23T07:22:14.446Z,-2.10
2018-11-23T07:25:02.272Z,-2.10
2018-11-23T07:27:50.141Z,-2.10
2018-11-23T07:30:37.921Z,-2.10
2018-11-23T07:33:25.729Z,-2.00
2018-11-23T07:36:13.557Z,-2.00
2018-11-23T07:39:01.350Z,-2.10
2018-11-23T07:42:08.548Z,-2.00
2018-11-23T07:44:56.340Z,-1.90
2018-11-23T07:47:44.187Z,-1.90
2018-11-23T07:50:32.001Z,-1.90
2018-11-23T07:53:19.836Z,-1.90
2018-11-23T07:56:07.647Z,-1.80
2018-11-23T07:58:55.489Z,-1.80
2018-11-23T08:01:43.280Z,-1.80
2018-11-23T08:04:31.122Z,-1.90
2018-11-23T08:07:18.929Z,-1.90
2018-11-23T08:10:09.937Z,-1.90
2018-11-23T08:12:57.762Z,-1.90
2018-11-23T08:15:27.194Z,-1.90
2018-11-23T08:18:15.010Z,-1.80
2018-11-23T08:21:02.851Z,-1.80
2018-11-23T08:23:50.760Z,-1.70
2018-11-23T08:26:38.626Z,-1.60
2018-11-23T08:29:26.438Z,-1.50
2018-11-23T08:32:14.263Z,-1.50
2018-11-23T08:35:02.121Z,-1.50
2018-11-23T08:37:49.947Z,-1.50
2018-11-23T08:40:37.768Z,-1.50
2018-11-23T08:43:25.586Z,-1.50
2018-11-23T08:46:13.409Z,-1.40
2018-11-23T08:49:01.265Z,-1.40
2018-11-23T08:51:49.062Z,-1.20
2018-11-23T08:54:36.889Z,-1.00
2018-11-23T08:57:24.701Z,-0.80
2018-11-23T09:00:31.862Z,-0.80
2018-11-23T09:03:19.684Z,-0.70
2018-11-23T09:06:07.521Z,-0.60
2018-11-23T09:08:55.330Z,-0.50
2018-11-23T09:11:43.155Z,-0.50
2018-11-23T09:14:30.973Z,-0.50
2018-11-23T09:17:18.863Z,-0.40
2018-11-23T09:20:07.278Z,-0.30
2018-11-23T09:22:55.095Z,-0.30
2018-11-23T09:25:42.932Z,-0.20
2018-11-23T09:28:30.732Z,-0.30
2018-11-23T09:31:18.562Z,-0.50
2018-11-23T09:34:06.376Z,-0.50
2018-11-23T09:36:54.194Z,-0.50
2018-11-23T09:39:42.006Z,-0.40
2018-11-23T09:42:29.838Z,-0.40
2018-11-23T09:45:18.947Z,-0.40
2018-11-23T09:48:07.217Z,-0.50
2018-11-23T09:50:55.015Z,-0.30
2018-11-23T09:53:42.831Z,-0.20
2018-11-23T09:56:30.632Z,0.00
2018-11-23T09:59:18.464Z,0.20
2018-11-23T10:02:06.311Z,0.20
2018-11-23T10:04:54.101Z,0.20
2018-11-23T10:07:42.928Z,0.30
2018-11-23T10:10:31.018Z,0.20
2018-11-23T10:13:18.821Z,0.10
2018-11-23T10:16:06.645Z,0.20
2018-11-23T10:18:54.450Z,0.30
2018-11-23T10:21:42.309Z,0.50
2018-11-23T10:24:30.106Z,0.60
2018-11-23T10:27:17.933Z,0.70
2018-11-23T10:30:06.245Z,0.80
2018-11-23T10:32:55.479Z,0.80
2018-11-23T10:35:43.290Z,0.70
2018-11-23T10:38:31.104Z,0.80
2018-11-23T10:40:59.563Z,1.00
2018-11-23T10:43:47.400Z,1.20
2018-11-23T10:46:35.198Z,1.30
2018-11-23T10:49:23.008Z,1.40
2018-11-23T10:52:10.844Z,1.60
2018-11-23T10:54:58.660Z,1.80
2018-11-23T10:57:46.585Z,1.80
2018-11-23T11:00:53.513Z,1.60
2018-11-23T11:04:00.411Z,1.60
2018-11-23T11:07:07.324Z,1.90
2018-11-23T11:09:55.111Z,2.20
2018-11-23T11:15:36.679Z,2.50
2018-11-23T11:18:24.489Z,2.70
2018-11-23T11:21:12.302Z,2.80
2018-11-23T11:24:00.116Z,2.80
2018-11-23T11:26:47.915Z,2.70
2018-11-23T11:29:29.048Z,2.80
2018-11-23T11:32:09.384Z,2.90
2018-11-23T11:34:49.963Z,2.90
2018-11-23T11:37:31.061Z,2.90
2018-11-23T11:40:16.473Z,2.80
2018-11-23T11:42:56.964Z,2.80
2018-11-23T11:45:37.274Z,2.60
2018-11-23T11:48:18.293Z,2.60
2018-11-23T11:50:59.295Z,2.60
2018-11-23T11:53:40.263Z,2.70
2018-11-23T11:56:21.239Z,2.80
2018-11-23T11:59:01.816Z,2.80
2018-11-23T12:01:42.582Z,2.80
2018-11-23T12:04:23.281Z,2.70
2018-11-23T12:07:03.855Z,2.80
2018-11-23T12:09:45.016Z,3.00
2018-11-23T12:12:25.941Z,3.10
2018-11-23T12:15:06.997Z,3.20
2018-11-23T12:17:47.715Z,3.30
2018-11-23T12:20:28.096Z,3.30
2018-11-23T12:23:09.258Z,3.30
2018-11-23T12:25:50.327Z,3.30
2018-11-23T12:28:31.556Z,3.40
2018-11-23T12:31:12.399Z,3.40
2018-11-23T12:33:53.479Z,3.40
2018-11-23T12:36:34.541Z,3.40
2018-11-23T12:39:15.678Z,3.40
2018-11-23T12:41:56.693Z,3.40
2018-11-23T12:44:37.792Z,3.30
2018-11-23T12:47:18.817Z,3.20
2018-11-23T12:49:59.798Z,3.20
2018-11-23T12:52:40.080Z,3.10
2018-11-23T12:55:21.220Z,3.10
2018-11-23T12:58:02.034Z,3.10
2018-11-23T13:00:41.079Z,3.10
2018-11-23T13:03:28.894Z,3.10
2018-11-23T13:05:57.346Z,3.10
2018-11-23T13:08:25.772Z,3.20
2018-11-23T13:11:13.588Z,3.20
2018-11-23T13:14:01.377Z,3.30
2018-11-23T13:16:49.203Z,3.30
2018-11-23T13:19:37.003Z,3.30
2018-11-23T13:22:24.845Z,3.30
2018-11-23T13:28:21.395Z,3.20
2018-11-23T13:31:09.185Z,3.20
2018-11-23T13:33:57.029Z,3.20
2018-11-23T13:36:44.849Z,3.20
2018-11-23T13:39:32.680Z,3.20
2018-11-23T13:42:20.483Z,3.10
2018-11-23T13:48:03.207Z,2.90
2018-11-23T13:50:51.029Z,2.90
2018-11-23T13:53:38.832Z,2.90
2018-11-23T13:56:26.660Z,2.90
2018-11-23T13:59:14.472Z,2.90
2018-11-23T14:02:02.317Z,2.90
2018-11-23T14:04:50.126Z,2.90
2018-11-23T14:07:37.982Z,2.90
2018-11-23T14:10:26.714Z,3.00
2018-11-23T14:13:14.531Z,3.00
2018-11-23T14:16:02.337Z,2.90
2018-11-23T14:18:50.145Z,2.90
2018-11-23T14:21:37.940Z,2.90
2018-11-23T14:24:25.779Z,2.90
2018-11-23T14:27:13.569Z,2.90
2018-11-23T14:30:01.402Z,2.90
2018-11-23T14:32:49.386Z,2.90
2018-11-23T14:35:37.219Z,2.80
2018-11-23T14:38:25.027Z,2.80
2018-11-23T14:41:12.837Z,2.70
2018-11-23T14:44:06.839Z,2.70
2018-11-23T14:46:48.520Z,2.70
2018-11-23T14:49:36.308Z,2.70
2018-11-23T14:52:24.153Z,2.70
2018-11-23T14:55:11.941Z,2.70
2018-11-23T14:58:00.007Z,2.70
2018-11-23T15:00:47.819Z,2.60
2018-11-23T15:03:35.653Z,2.60
2018-11-23T15:06:23.468Z,2.50
2018-11-23T15:12:05.512Z,2.50
2018-11-23T15:14:53.341Z,2.40
2018-11-23T15:17:41.377Z,2.40
2018-11-23T15:20:48.529Z,2.40
2018-11-23T15:23:36.347Z,2.30
2018-11-23T15:26:24.146Z,2.30
2018-11-23T15:29:11.952Z,2.20
2018-11-23T15:31:59.765Z,2.20
2018-11-23T15:34:28.189Z,2.10
2018-11-23T15:37:16.020Z,2.10
2018-11-23T15:40:03.812Z,2.10
2018-11-23T15:42:53.116Z,2.10
2018-11-23T15:45:40.917Z,2.00
2018-11-23T15:48:28.744Z,2.00
2018-11-23T15:51:16.561Z,2.00
2018-11-23T15:54:04.401Z,2.00
2018-11-23T15:56:52.195Z,2.00
2018-11-23T15:59:40.035Z,2.00
2018-11-23T16:02:27.830Z,2.00
2018-11-23T16:05:15.858Z,1.90
2018-11-23T16:08:04.125Z,1.80
2018-11-23T16:10:51.921Z,1.80
2018-11-23T16:13:39.734Z,1.80
2018-11-23T16:16:27.553Z,1.80
2018-11-23T16:19:15.368Z,1.80
2018-11-23T16:22:03.183Z,1.80
2018-11-23T16:24:51.006Z,1.70
2018-11-23T16:30:47.841Z,1.70
2018-11-23T16:33:35.651Z,1.70
2018-11-23T16:36:23.532Z,1.70
2018-11-23T16:39:12.653Z,1.70
2018-11-23T16:42:00.470Z,1.70
2018-11-23T16:44:48.274Z,1.70
2018-11-23T16:47:36.104Z,1.80
2018-11-23T16:50:23.961Z,1.80
2018-11-23T16:53:12.032Z,1.70
2018-11-23T16:59:07.288Z,1.80
2018-11-23T17:01:55.100Z,1.90
2018-11-23T17:04:43.071Z,1.80
2018-11-23T17:07:30.869Z,1.80
2018-11-23T17:10:19.218Z,1.80
2018-11-23T17:13:07.018Z,1.80
2018-11-23T17:15:54.841Z,1.80
2018-11-23T17:18:42.632Z,1.70
2018-11-23T17:21:30.467Z,1.60
2018-11-23T17:24:18.340Z,1.70
2018-11-23T17:27:06.155Z,1.60
2018-11-23T17:29:53.982Z,1.60
2018-11-23T17:32:41.800Z,1.70
2018-11-23T17:35:29.886Z,1.60
2018-11-23T17:38:17.713Z,1.60
2018-11-23T17:41:05.708Z,1.60
2018-11-23T17:46:47.506Z,1.50
2018-11-23T17:49:35.336Z,1.50
2018-11-23T17:52:23.166Z,1.50
2018-11-23T17:55:11.868Z,1.50
2018-11-23T17:57:59.811Z,1.50
2018-11-23T18:00:47.638Z,1.60
2018-11-23T18:03:35.457Z,1.60
2018-11-23T18:06:23.264Z,1.60
2018-11-23T18:09:11.080Z,1.60
2018-11-23T18:11:58.869Z,1.60
2018-11-23T18:14:46.701Z,1.60
2018-11-23T18:17:34.669Z,1.60
2018-11-23T18:20:23.544Z,1.50
2018-11-23T18:23:11.378Z,1.60
2018-11-23T18:25:59.190Z,1.50
2018-11-23T18:28:46.992Z,1.50
2018-11-23T18:31:34.824Z,1.60
2018-11-23T18:34:22.611Z,1.50
2018-11-23T18:37:10.444Z,1.40
2018-11-23T18:42:45.786Z,1.20
2018-11-23T18:45:33.584Z,1.20
2018-11-23T18:48:21.402Z,1.20
2018-11-23T18:51:09.246Z,1.10
2018-11-23T18:53:57.068Z,1.00
2018-11-23T18:56:44.857Z,1.00
2018-11-23T18:59:32.688Z,0.90
2018-11-23T19:02:20.497Z,0.90
2018-11-23T19:05:09.501Z,0.80
2018-11-23T19:07:57.288Z,0.80
2018-11-23T19:10:45.099Z,0.80
2018-11-23T19:13:32.895Z,0.70
2018-11-23T19:16:20.707Z,0.60
2018-11-23T19:19:08.528Z,0.50
2018-11-23T19:21:56.348Z,0.50
2018-11-23T19:24:44.176Z,0.50
2018-11-23T19:27:31.991Z,0.50
2018-11-23T19:30:23.514Z,0.40
2018-11-23T19:33:08.050Z,0.40
2018-11-23T19:35:56.043Z,0.30
2018-11-23T19:38:43.902Z,0.30
2018-11-23T19:41:31.708Z,0.30
2018-11-23T19:44:19.541Z,0.20
2018-11-23T19:47:07.338Z,0.20
2018-11-23T19:49:55.181Z,0.10
2018-11-23T19:52:42.991Z,0.10
2018-11-23T19:55:30.856Z,0.20
2018-11-23T19:58:18.660Z,0.20
2018-11-23T20:01:06.497Z,0.10
2018-11-23T20:03:54.317Z,0.10
2018-11-23T20:06:44.325Z,0.00
2018-11-23T20:09:32.126Z,-0.10
2018-11-23T20:12:19.953Z,-0.20
2018-11-23T20:15:09.264Z,-0.20
2018-11-23T20:17:57.083Z,-0.30
2018-11-23T20:20:44.877Z,-0.30
2018-11-23T20:23:32.705Z,-0.30
2018-11-23T20:26:20.525Z,-0.30
2018-11-23T20:29:08.384Z,-0.40
2018-11-23T20:31:56.840Z,-0.50
2018-11-23T20:34:44.636Z,-0.50
2018-11-23T20:37:32.475Z,-0.50
2018-11-23T20:40:39.625Z,-0.50
2018-11-23T20:43:27.470Z,-0.50
2018-11-23T20:46:15.302Z,-0.50
2018-11-23T20:49:03.173Z,-0.50
2018-11-23T20:51:50.965Z,-0.50
2018-11-23T20:54:38.796Z,-0.40
2018-11-23T20:57:26.622Z,-0.40
2018-11-23T21:00:15.589Z,-0.30
2018-11-23T21:03:03.374Z,-0.20
2018-11-23T21:05:51.196Z,-0.10
2018-11-23T21:08:39.015Z,0.00
2018-11-23T21:11:26.860Z,0.10
2018-11-23T21:14:14.662Z,0.20
2018-11-23T21:17:02.461Z,0.30
2018-11-23T21:19:50.287Z,0.40
2018-11-23T21:22:38.126Z,0.40
2018-11-23T21:25:25.951Z,0.50
2018-11-23T21:28:13.776Z,0.50
2018-11-23T21:34:10.168Z,0.60
2018-11-23T21:36:50.765Z,0.60
2018-11-23T21:39:31.680Z,0.70
2018-11-23T21:42:13.127Z,0.70
2018-11-23T21:44:53.669Z,0.60
2018-11-23T21:47:34.589Z,0.60
2018-11-23T21:50:15.619Z,0.60
2018-11-23T21:52:56.018Z,0.70
2018-11-23T21:55:37.073Z,0.70
2018-11-23T21:58:18.309Z,0.70
2018-11-23T22:00:59.544Z,0.70
2018-11-23T22:03:40.287Z,0.80
2018-11-23T22:06:21.412Z,0.90
2018-11-23T22:09:02.509Z,0.90
2018-11-23T22:11:43.175Z,0.90
2018-11-23T22:14:23.430Z,0.90
2018-11-23T22:17:03.835Z,0.90
2018-11-23T22:19:45.048Z,1.00
2018-11-23T22:22:25.849Z,1.00
2018-11-23T22:25:06.819Z,1.00
2018-11-23T22:27:47.701Z,0.90
2018-11-23T22:30:28.725Z,0.90
2018-11-23T22:33:09.355Z,0.90
2018-11-23T22:35:50.490Z,0.90
2018-11-23T22:38:31.499Z,0.90
2018-11-23T22:41:12.608Z,0.90
2018-11-23T22:43:53.148Z,0.90
2018-11-23T22:46:33.655Z,0.90
2018-11-23T22:49:14.363Z,1.00
2018-11-23T22:51:55.452Z,1.00
2018-11-23T22:54:36.354Z,0.90
2018-11-23T22:57:11.639Z,0.90
2018-11-23T22:59:53.154Z,0.90
2018-11-23T23:02:40.949Z,0.80
2018-11-23T23:05:28.767Z,0.80
2018-11-23T23:08:16.567Z,0.80
2018-11-23T23:11:04.385Z,0.80
2018-11-23T23:13:52.194Z,0.80
2018-11-23T23:16:40.035Z,0.70
2018-11-23T23:19:27.857Z,0.70
2018-11-23T23:22:15.676Z,0.70
2018-11-23T23:25:03.482Z,0.70
2018-11-23T23:27:51.306Z,0.70
2018-11-23T23:30:39.143Z,0.60
2018-11-23T23:33:26.969Z,0.60
2018-11-23T23:36:14.746Z,0.60
2018-11-23T23:39:02.556Z,0.60
2018-11-23T23:41:50.348Z,0.70
2018-11-23T23:44:38.201Z,0.60
2018-11-23T23:47:25.979Z,0.60
2018-11-23T23:50:33.154Z,0.60
2018-11-23T23:53:20.966Z,0.50
2018-11-23T23:56:08.781Z,0.50
2018-11-23T23:58:56.616Z,0.50
